Time;durP1;ratioP1;P1;durP2;ratioP2;P2;SDS_P1;SDS_P2;PMS_P1;PMS_P2;Temp;Humidity;BMP_temperature;BMP_pressure;BME280_temperature;BME280_humidity;BME280_pressure;Samples;Min_cycle;Max_cycle;Signal;HPM_P1;HPM_P2
2024/01/03 00:01:33;;;;;;;25.08;24.08;;;;;;;;;;4149310;28;20046;-65
2024/01/03 00:03:35;;;;;;;28.17;26.95;;;;;;;;;;4165882;28;20537;-63
2024/01/03 00:05:39;;;;;;;27.92;26.58;;;;;;;;;;4166077;28;20073;-64
2024/01/03 00:07:41;;;;;;;25.52;24.63;;;;;;;;;;4165996;28;20428;-63
2024/01/03 00:09:42;;;;;;;27.10;26.25;;;;;;;;;;4173588;28;20048;-64
2024/01/03 00:11:45;;;;;;;28.03;26.63;;;;;;;;;;4166062;28;20048;-65
2024/01/03 00:13:47;;;;;;;27.25;26.02;;;;;;;;;;4166096;28;20037;-64
2024/01/03 00:16:03;;;;;;;29.13;27.50;;;;;;;;;;4165986;28;20053;-65
2024/01/03 00:18:06;;;;;;;29.23;27.88;;;;;;;;;;4165587;28;20038;-63
2024/01/03 00:20:08;;;;;;;29.05;27.95;;;;;;;;;;4165961;28;20046;-64
2024/01/03 00:22:11;;;;;;;28.52;26.85;;;;;;;;;;4165736;28;20053;-63
2024/01/03 00:24:16;;;;;;;29.77;28.55;;;;;;;;;;4165663;28;20046;-64
2024/01/03 00:26:17;;;;;;;27.10;26.08;;;;;;;;;;4165705;28;20041;-63
2024/01/03 00:28:19;;;;;;;28.25;27.10;;;;;;;;;;4165829;28;20042;-62
2024/01/03 00:30:21;;;;;;;26.30;24.80;;;;;;;;;;4165916;28;20040;-69
2024/01/03 00:32:23;;;;;;;26.60;25.47;;;;;;;;;;4165660;28;20635;-69
2024/01/03 00:34:39;;;;;;;27.60;26.80;;;;;;;;;;4165435;28;20690;-71
2024/01/03 00:36:41;;;;;;;27.65;26.58;;;;;;;;;;4165367;28;20116;-70
2024/01/03 00:38:44;;;;;;;27.60;26.37;;;;;;;;;;4165703;28;20041;-71
2024/01/03 00:40:55;;;;;;;30.35;29.08;;;;;;;;;;4165623;28;20976;-70
2024/01/03 00:42:57;;;;;;;29.45;27.88;;;;;;;;;;4150789;28;20045;-71
2024/01/03 00:44:59;;;;;;;30.30;28.50;;;;;;;;;;4165314;28;20041;-70
2024/01/03 00:47:01;;;;;;;25.27;23.77;;;;;;;;;;4165555;28;20370;-70
2024/01/03 00:49:02;;;;;;;29.42;28.15;;;;;;;;;;4165521;28;20816;-70
2024/01/03 00:51:04;;;;;;;28.38;26.98;;;;;;;;;;4165106;28;20412;-71
2024/01/03 00:53:06;;;;;;;27.17;25.97;;;;;;;;;;4134784;28;20501;-71
2024/01/03 00:55:09;;;;;;;24.45;23.52;;;;;;;;;;4165174;28;20119;-71
2024/01/03 00:57:10;;;;;;;;;;;;;;;;;;4166052;28;20045;-70
2024/01/03 00:59:12;;;;;;;27.60;26.38;;;;;;;;;;4165219;28;19921;-71
2024/01/03 01:01:14;;;;;;;26.83;25.67;;;;;;;;;;4164875;28;20049;-71
2024/01/03 01:03:17;;;;;;;26.70;25.83;;;;;;;;;;4164798;28;20077;-70
2024/01/03 01:05:18;;;;;;;27.15;25.70;;;;;;;;;;4165009;28;20063;-70
2024/01/03 01:07:21;;;;;;;28.30;26.95;;;;;;;;;;4165372;28;20063;-71
2024/01/03 01:09:22;;;;;;;28.08;26.65;;;;;;;;;;4173661;28;20445;-70
2024/01/03 01:11:24;;;;;;;28.13;26.73;;;;;;;;;;4165388;28;20095;-70
2024/01/03 01:13:26;;;;;;;27.83;26.48;;;;;;;;;;4165061;28;20056;-71
2024/01/03 01:15:27;;;;;;;25.92;24.65;;;;;;;;;;4164899;28;20122;-70
2024/01/03 01:17:29;;;;;;;27.10;25.92;;;;;;;;;;4165103;28;20037;-71
2024/01/03 01:19:31;;;;;;;25.77;25.00;;;;;;;;;;4164197;28;20037;-70
2024/01/03 01:21:32;;;;;;;27.98;26.75;;;;;;;;;;4165009;28;20252;-70
2024/01/03 01:23:34;;;;;;;27.50;26.20;;;;;;;;;;4164864;28;20371;-70
2024/01/03 01:25:36;;;;;;;28.33;27.05;;;;;;;;;;4165007;28;20091;-70
2024/01/03 01:27:37;;;;;;;28.38;26.70;;;;;;;;;;4164751;28;20076;-71
2024/01/03 01:29:39;;;;;;;26.08;25.02;;;;;;;;;;4164643;28;20052;-71
2024/01/03 01:31:41;;;;;;;27.43;26.57;;;;;;;;;;4164556;28;20133;-71
2024/01/03 01:33:42;;;;;;;26.17;24.53;;;;;;;;;;4164545;28;20288;-71
2024/01/03 01:35:44;;;;;;;28.45;27.20;;;;;;;;;;4164811;28;20033;-71
2024/01/03 01:37:46;;;;;;;27.60;26.50;;;;;;;;;;4164751;28;20037;-69
2024/01/03 01:39:48;;;;;;;27.77;26.83;;;;;;;;;;4164690;28;20092;-71
2024/01/03 01:41:49;;;;;;;28.40;26.87;;;;;;;;;;4164866;28;20033;-64
2024/01/03 01:43:51;;;;;;;26.93;25.30;;;;;;;;;;4164684;28;20041;-63
2024/01/03 01:45:53;;;;;;;26.50;24.87;;;;;;;;;;4164323;28;20456;-63
2024/01/03 01:47:54;;;;;;;29.35;27.70;;;;;;;;;;4164461;28;20280;-64
2024/01/03 01:49:56;;;;;;;25.35;24.42;;;;;;;;;;4164476;28;20041;-64
2024/01/03 01:51:59;;;;;;;27.13;25.70;;;;;;;;;;4148847;28;20038;-63
2024/01/03 01:54:01;;;;;;;24.10;23.25;;;;;;;;;;4166429;28;20049;-64
2024/01/03 01:56:03;;;;;;;27.15;25.88;;;;;;;;;;4164343;28;20038;-64
2024/01/03 01:58:05;;;;;;;28.05;27.08;;;;;;;;;;4163605;28;20088;-63
2024/01/03 02:00:08;;;;;;;26.52;25.55;;;;;;;;;;4164143;28;20493;-64
2024/01/03 02:02:11;;;;;;;29.15;27.50;;;;;;;;;;4164118;28;20091;-64
2024/01/03 02:04:12;;;;;;;27.50;26.52;;;;;;;;;;4163981;28;20572;-64
2024/01/03 02:06:15;;;;;;;26.80;25.63;;;;;;;;;;4164082;28;20041;-63
2024/01/03 02:08:17;;;;;;;25.55;24.52;;;;;;;;;;4166900;28;20049;-64
2024/01/03 02:10:20;;;;;;;25.80;24.70;;;;;;;;;;4170928;28;20119;-64
2024/01/03 02:12:26;;;;;;;23.10;21.83;;;;;;;;;;4164302;28;20558;-64
2024/01/03 02:14:28;;;;;;;27.95;26.88;;;;;;;;;;4164051;28;20038;-64
2024/01/03 02:16:29;;;;;;;26.27;24.60;;;;;;;;;;4164085;28;20037;-63
2024/01/03 02:18:31;;;;;;;29.15;27.77;;;;;;;;;;4164562;28;20041;-63
2024/01/03 02:20:34;;;;;;;26.63;25.40;;;;;;;;;;4164165;28;20047;-62
2024/01/03 02:22:36;;;;;;;28.77;27.27;;;;;;;;;;4164281;28;20322;-64
2024/01/03 02:24:37;;;;;;;28.35;26.83;;;;;;;;;;4163571;28;20546;-63
2024/01/03 02:26:39;;;;;;;28.30;26.83;;;;;;;;;;4163980;28;20523;-64
2024/01/03 02:28:41;;;;;;;26.67;25.57;;;;;;;;;;4164176;28;20559;-64
2024/01/03 02:30:44;;;;;;;28.38;27.20;;;;;;;;;;4163975;28;20370;-64
2024/01/03 02:32:46;;;;;;;27.05;26.05;;;;;;;;;;4164103;28;20453;-64
2024/01/03 02:34:48;;;;;;;27.42;26.00;;;;;;;;;;4163814;28;20041;-63
2024/01/03 02:36:51;;;;;;;27.48;25.88;;;;;;;;;;4163813;28;20091;-63
2024/01/03 02:38:53;;;;;;;27.80;26.17;;;;;;;;;;4164049;28;20038;-63
2024/01/03 02:40:55;;;;;;;26.80;25.48;;;;;;;;;;4163792;28;20124;-63
2024/01/03 02:42:57;;;;;;;26.95;25.65;;;;;;;;;;4145156;28;20057;-64
2024/01/03 02:44:59;;;;;;;26.17;24.97;;;;;;;;;;4163945;28;20042;-63
2024/01/03 02:47:00;;;;;;;27.88;26.80;;;;;;;;;;4163863;28;20037;-63
2024/01/03 02:49:02;;;;;;;28.27;26.30;;;;;;;;;;4163865;28;20390;-64
2024/01/03 02:51:04;;;;;;;26.77;25.35;;;;;;;;;;4163451;28;20052;-64
2024/01/03 02:53:05;;;;;;;26.90;25.90;;;;;;;;;;4169468;28;20095;-70
2024/01/03 02:55:07;;;;;;;26.70;25.85;;;;;;;;;;4162012;28;20093;-70
2024/01/03 02:57:09;;;;;;;27.07;25.53;;;;;;;;;;4159246;28;20044;-71
2024/01/03 02:59:10;;;;;;;27.67;26.27;;;;;;;;;;4163663;28;20272;-70
2024/01/03 03:01:12;;;;;;;26.50;25.47;;;;;;;;;;4163346;28;20107;-71
2024/01/03 03:03:14;;;;;;;25.48;24.23;;;;;;;;;;4163463;28;20295;-70
2024/01/03 03:05:16;;;;;;;26.33;24.63;;;;;;;;;;4163780;28;20045;-70
2024/01/03 03:07:17;;;;;;;27.33;25.77;;;;;;;;;;4163774;28;20414;-70
2024/01/03 03:09:19;;;;;;;26.83;25.50;;;;;;;;;;4174940;28;20041;-70
2024/01/03 03:11:20;;;;;;;28.13;26.13;;;;;;;;;;4163742;28;20038;-70
2024/01/03 03:13:23;;;;;;;27.80;25.37;;;;;;;;;;4163584;28;20445;-70
2024/01/03 03:15:24;;;;;;;;;;;;;;;;;;4146503;28;20046;-70
2024/01/03 03:17:26;;;;;;;26.90;25.90;;;;;;;;;;4163593;28;20269;-70
2024/01/03 03:19:28;;;;;;;28.00;26.85;;;;;;;;;;4163540;28;20038;-70
2024/01/03 03:21:29;;;;;;;27.47;25.50;;;;;;;;;;4163394;28;20073;-70
2024/01/03 03:23:31;;;;;;;27.90;26.30;;;;;;;;;;4163607;28;20045;-71
2024/01/03 03:25:33;;;;;;;28.07;26.43;;;;;;;;;;4163683;28;20091;-70
2024/01/03 03:27:34;;;;;;;25.47;24.10;;;;;;;;;;4145935;28;20165;-70
2024/01/03 03:29:36;;;;;;;26.02;24.35;;;;;;;;;;4163361;28;20379;-71
2024/01/03 03:31:37;;;;;;;27.23;25.93;;;;;;;;;;4163332;28;20041;-70
2024/01/03 03:33:39;;;;;;;27.00;25.77;;;;;;;;;;4163738;28;20489;-70
2024/01/03 03:35:41;;;;;;;27.75;26.23;;;;;;;;;;4163346;28;20053;-71
2024/01/03 03:37:43;;;;;;;29.00;26.63;;;;;;;;;;4163335;28;20037;-70
2024/01/03 03:39:44;;;;;;;27.03;25.83;;;;;;;;;;4163334;28;20280;-70
2024/01/03 03:41:46;;;;;;;27.83;26.00;;;;;;;;;;4163725;28;20092;-70
2024/01/03 03:43:48;;;;;;;28.98;27.52;;;;;;;;;;4166419;28;20041;-70
2024/01/03 03:45:50;;;;;;;28.23;26.58;;;;;;;;;;4166643;28;20544;-70
2024/01/03 03:47:51;;;;;;;27.20;25.17;;;;;;;;;;4166197;28;20042;-70
2024/01/03 03:49:54;;;;;;;;;;;;;;;;;;4166866;28;20764;-70
2024/01/03 03:51:55;;;;;;;26.60;25.83;;;;;;;;;;4168103;28;20036;-70
2024/01/03 03:53:57;;;;;;;25.75;24.17;;;;;;;;;;4170868;28;20103;-70
2024/01/03 03:55:59;;;;;;;25.70;24.73;;;;;;;;;;4166123;28;20076;-70
2024/01/03 03:58:00;;;;;;;26.60;25.07;;;;;;;;;;4166126;28;20082;-71
2024/01/03 04:00:05;;;;;;;28.83;26.90;;;;;;;;;;4166117;28;20041;-70
2024/01/03 04:02:07;;;;;;;28.42;26.48;;;;;;;;;;4166310;28;20125;-64
2024/01/03 04:04:09;;;;;;;26.25;25.17;;;;;;;;;;4165922;28;20054;-64
2024/01/03 04:06:12;;;;;;;26.60;25.33;;;;;;;;;;4166079;28;20052;-65
2024/01/03 04:08:14;;;;;;;27.48;25.38;;;;;;;;;;4168187;28;20292;-64
2024/01/03 04:10:16;;;;;;;30.25;28.40;;;;;;;;;;4175534;28;20042;-64
2024/01/03 04:12:18;;;;;;;28.23;26.43;;;;;;;;;;4166121;28;20527;-64
2024/01/03 04:14:20;;;;;;;29.77;27.70;;;;;;;;;;4148277;28;20072;-64
2024/01/03 04:16:21;;;;;;;27.27;25.48;;;;;;;;;;4165951;28;20033;-64
2024/01/03 04:18:23;;;;;;;25.42;24.38;;;;;;;;;;4165973;28;20095;-63
2024/01/03 04:20:25;;;;;;;28.40;26.73;;;;;;;;;;4165987;28;20041;-63
2024/01/03 04:22:27;;;;;;;28.10;26.20;;;;;;;;;;4165891;28;20041;-65
2024/01/03 04:24:28;;;;;;;28.25;26.42;;;;;;;;;;4165676;28;20042;-63
2024/01/03 04:26:33;;;;;;;27.83;26.03;;;;;;;;;;4165892;28;20440;-63
2024/01/03 04:28:35;;;;;;;28.40;26.63;;;;;;;;;;4165674;28;20037;-64
2024/01/03 04:30:36;;;;;;;26.65;24.95;;;;;;;;;;4147764;28;20050;-63
2024/01/03 04:32:38;;;;;;;27.20;25.60;;;;;;;;;;4165523;28;20048;-64
2024/01/03 04:34:40;;;;;;;27.52;25.67;;;;;;;;;;4165434;28;20535;-64
2024/01/03 04:36:42;;;;;;;28.17;26.08;;;;;;;;;;4165786;28;20491;-63
2024/01/03 04:38:43;;;;;;;28.90;26.73;;;;;;;;;;4165624;28;20042;-64
2024/01/03 04:40:45;;;;;;;24.53;23.03;;;;;;;;;;4165631;28;20576;-64
2024/01/03 04:42:47;;;;;;;24.47;23.20;;;;;;;;;;4165801;28;20045;-64
2024/01/03 04:44:48;;;;;;;26.10;24.87;;;;;;;;;;4165410;28;20052;-64
2024/01/03 04:46:50;;;;;;;27.17;25.50;;;;;;;;;;4165662;28;20042;-64
2024/01/03 04:48:52;;;;;;;26.73;25.30;;;;;;;;;;4165582;28;20379;-65
2024/01/03 04:50:54;;;;;;;27.00;25.60;;;;;;;;;;4132581;28;20073;-65
2024/01/03 04:52:57;;;;;;;26.47;25.27;;;;;;;;;;4172933;28;20428;-65
2024/01/03 04:54:59;;;;;;;26.92;25.55;;;;;;;;;;4164799;28;20296;-64
2024/01/03 04:57:01;;;;;;;29.53;28.07;;;;;;;;;;4165263;28;20080;-64
2024/01/03 04:59:03;;;;;;;26.55;24.92;;;;;;;;;;4165176;28;20079;-64
2024/01/03 05:01:04;;;;;;;26.60;24.50;;;;;;;;;;4164849;28;20053;-64
2024/01/03 05:03:06;;;;;;;27.80;25.83;;;;;;;;;;4165325;28;20095;-63
2024/01/03 05:05:08;;;;;;;27.02;25.70;;;;;;;;;;4147907;28;20390;-64
2024/01/03 05:07:10;;;;;;;27.43;25.67;;;;;;;;;;4165203;28;20042;-63
2024/01/03 05:09:11;;;;;;;25.67;24.67;;;;;;;;;;4175174;28;20045;-63
2024/01/03 05:11:13;;;;;;;24.95;23.52;;;;;;;;;;4167914;28;20437;-64
2024/01/03 05:13:18;;;;;;;27.30;25.67;;;;;;;;;;4165111;28;20037;-71
2024/01/03 05:15:19;;;;;;;27.60;25.88;;;;;;;;;;4165084;28;20038;-71
2024/01/03 05:17:21;;;;;;;29.02;27.00;;;;;;;;;;4165184;28;20539;-70
2024/01/03 05:19:23;;;;;;;30.05;28.20;;;;;;;;;;4164960;28;20052;-71
2024/01/03 05:21:24;;;;;;;26.40;25.10;;;;;;;;;;4164639;28;20489;-71
2024/01/03 05:23:26;;;;;;;30.13;27.60;;;;;;;;;;4164273;28;20052;-71
2024/01/03 05:25:28;;;;;;;29.67;27.42;;;;;;;;;;4164642;28;20043;-71
2024/01/03 05:27:29;;;;;;;29.07;26.77;;;;;;;;;;4147180;28;20058;-70
2024/01/03 05:29:31;;;;;;;29.52;27.95;;;;;;;;;;4147232;28;20045;-70
2024/01/03 05:31:32;;;;;;;26.63;25.03;;;;;;;;;;4164854;28;20526;-71
2024/01/03 05:33:34;;;;;;;27.70;26.02;;;;;;;;;;4164601;28;20125;-71
2024/01/03 05:35:36;;;;;;;28.02;26.75;;;;;;;;;;4164527;28;20038;-71
2024/01/03 05:37:37;;;;;;;26.03;24.63;;;;;;;;;;4164691;28;20073;-71
2024/01/03 05:39:39;;;;;;;27.57;25.93;;;;;;;;;;4164928;28;20034;-71
2024/01/03 05:41:41;;;;;;;24.83;23.93;;;;;;;;;;4164794;28;20045;-71
2024/01/03 05:43:42;;;;;;;26.13;24.03;;;;;;;;;;4164521;28;20041;-71
2024/01/03 05:45:44;;;;;;;27.60;26.00;;;;;;;;;;4164976;28;20038;-71
2024/01/03 05:47:46;;;;;;;25.90;24.40;;;;;;;;;;4164945;28;20107;-71
2024/01/03 05:49:47;;;;;;;26.70;24.27;;;;;;;;;;4164222;28;20593;-71
2024/01/03 05:51:49;;;;;;;26.92;25.35;;;;;;;;;;4165384;28;20068;-70
2024/01/03 05:53:51;;;;;;;28.30;26.73;;;;;;;;;;4172202;28;20037;-70
2024/01/03 05:55:52;;;;;;;29.30;27.07;;;;;;;;;;4164484;28;20443;-70
2024/01/03 05:57:54;;;;;;;27.77;26.03;;;;;;;;;;4164310;28;20370;-70
2024/01/03 05:59:56;;;;;;;26.40;24.97;;;;;;;;;;4164344;28;20075;-70
2024/01/03 06:01:58;;;;;;;25.88;24.70;;;;;;;;;;4164156;28;20763;-71
2024/01/03 06:04:00;;;;;;;30.05;27.85;;;;;;;;;;4164058;28;20132;-70
2024/01/03 06:06:02;;;;;;;27.40;25.52;;;;;;;;;;4163913;28;20060;-70
2024/01/03 06:08:04;;;;;;;28.08;25.73;;;;;;;;;;4165197;28;20045;-72
2024/01/03 06:10:06;;;;;;;27.85;26.13;;;;;;;;;;4176939;28;20072;-71
2024/01/03 06:12:08;;;;;;;29.53;28.03;;;;;;;;;;4164108;28;20045;-70
2024/01/03 06:14:13;;;;;;;28.15;26.30;;;;;;;;;;4146498;28;20567;-71
2024/01/03 06:16:14;;;;;;;24.40;23.38;;;;;;;;;;4163768;28;20069;-64
2024/01/03 06:18:16;;;;;;;26.53;25.03;;;;;;;;;;4163841;28;20095;-64
2024/01/03 06:20:18;;;;;;;30.50;28.60;;;;;;;;;;4163868;28;20041;-64
2024/01/03 06:22:24;;;;;;;29.45;26.80;;;;;;;;;;4162911;28;20084;-64
2024/01/03 06:24:25;;;;;;;26.90;25.52;;;;;;;;;;4164097;28;20103;-62
2024/01/03 06:26:30;;;;;;;28.27;26.33;;;;;;;;;;4163731;28;20064;-62
2024/01/03 06:28:32;;;;;;;27.58;25.83;;;;;;;;;;4163926;28;20049;-61
2024/01/03 06:30:35;;;;;;;28.70;26.63;;;;;;;;;;4163855;28;20041;-62
2024/01/03 06:32:36;;;;;;;;;;;;;;;;;;4164511;28;20045;-62
2024/01/03 06:34:38;;;;;;;29.58;27.42;;;;;;;;;;4163777;28;19921;-63
2024/01/03 06:36:40;;;;;;;26.48;24.92;;;;;;;;;;4163902;28;20125;-62
2024/01/03 06:38:41;;;;;;;26.92;24.45;;;;;;;;;;4160381;28;20083;-62
2024/01/03 06:40:43;;;;;;;27.15;25.52;;;;;;;;;;4152433;28;20053;-63
2024/01/03 06:42:45;;;;;;;25.80;24.60;;;;;;;;;;4156685;28;20041;-62
2024/01/03 06:44:46;;;;;;;26.98;25.75;;;;;;;;;;4163825;28;20460;-62
2024/01/03 06:46:48;;;;;;;27.47;25.87;;;;;;;;;;4163662;28;20448;-62
2024/01/03 06:48:50;;;;;;;27.70;25.43;;;;;;;;;;4163796;28;20091;-61
2024/01/03 06:50:51;;;;;;;26.13;25.00;;;;;;;;;;4162271;28;20053;-62
2024/01/03 06:52:53;;;;;;;28.20;26.25;;;;;;;;;;4172718;28;20132;-62
2024/01/03 06:54:56;;;;;;;27.40;25.75;;;;;;;;;;4178801;28;20037;-62
2024/01/03 06:56:59;;;;;;;25.30;23.77;;;;;;;;;;4163849;28;20037;-62
2024/01/03 06:59:00;;;;;;;27.10;25.77;;;;;;;;;;4163724;28;20049;-61
2024/01/03 07:01:02;;;;;;;27.33;25.53;;;;;;;;;;4163470;28;20048;-62
2024/01/03 07:03:04;;;;;;;26.05;24.85;;;;;;;;;;4163387;28;20458;-62
2024/01/03 07:05:06;;;;;;;27.25;25.73;;;;;;;;;;4163784;28;20049;-62
2024/01/03 07:07:08;;;;;;;28.25;26.33;;;;;;;;;;4164048;28;20056;-62
2024/01/03 07:09:09;;;;;;;27.43;25.60;;;;;;;;;;4173298;28;20099;-63
2024/01/03 07:11:11;;;;;;;26.60;24.75;;;;;;;;;;4168840;28;20397;-62
2024/01/03 07:13:13;;;;;;;25.45;24.35;;;;;;;;;;4163428;28;20444;-62
2024/01/03 07:15:17;;;;;;;25.27;23.60;;;;;;;;;;4163630;28;20513;-62
2024/01/03 07:17:19;;;;;;;25.75;23.58;;;;;;;;;;4165045;28;20043;-62
2024/01/03 07:19:21;;;;;;;29.17;27.73;;;;;;;;;;4162019;28;20401;-62
2024/01/03 07:21:23;;;;;;;27.80;26.23;;;;;;;;;;4166498;28;20401;-62
2024/01/03 07:23:24;;;;;;;27.40;25.02;;;;;;;;;;4167106;28;20280;-62
2024/01/03 07:25:26;;;;;;;27.33;25.40;;;;;;;;;;4166648;28;20496;-63
2024/01/03 07:27:27;;;;;;;26.42;24.65;;;;;;;;;;4166824;28;20038;-62
2024/01/03 07:29:29;;;;;;;26.15;24.42;;;;;;;;;;4166527;28;20042;-62
2024/01/03 07:31:31;;;;;;;29.60;27.67;;;;;;;;;;4166489;28;20042;-62
2024/01/03 07:33:32;;;;;;;30.03;27.40;;;;;;;;;;4149366;28;20116;-62
2024/01/03 07:35:34;;;;;;;29.05;27.08;;;;;;;;;;4166440;28;20586;-62
2024/01/03 07:37:36;;;;;;;29.57;27.50;;;;;;;;;;4166551;28;20041;-62
2024/01/03 07:39:38;;;;;;;25.07;23.77;;;;;;;;;;4166453;28;20400;-61
2024/01/03 07:41:39;;;;;;;26.90;25.80;;;;;;;;;;4166607;28;20120;-62
2024/01/03 07:43:41;;;;;;;28.27;26.47;;;;;;;;;;4148800;28;20049;-62
2024/01/03 07:45:42;;;;;;;28.10;25.80;;;;;;;;;;4148682;28;20630;-62
2024/01/03 07:47:44;;;;;;;27.40;25.92;;;;;;;;;;4166396;28;20045;-62
2024/01/03 07:49:47;;;;;;;29.88;27.45;;;;;;;;;;4166315;28;20129;-62
2024/01/03 07:51:51;;;;;;;27.60;25.77;;;;;;;;;;4166954;28;20051;-62
2024/01/03 07:53:53;;;;;;;27.75;26.02;;;;;;;;;;4175782;28;20501;-62
2024/01/03 07:55:55;;;;;;;30.03;27.20;;;;;;;;;;4166253;28;20076;-62
2024/01/03 07:57:57;;;;;;;;;;;;;;;;;;4166729;28;20037;-62
2024/01/03 07:59:58;;;;;;;28.90;27.15;;;;;;;;;;4148471;28;19929;-62
2024/01/03 08:02:00;;;;;;;32.25;27.85;;;;;;;;;;4166144;28;20099;-62
2024/01/03 08:04:04;;;;;;;27.13;25.30;;;;;;;;;;4165957;28;20531;-62
2024/01/03 08:06:06;;;;;;;30.15;28.05;;;;;;;;;;4165904;28;20096;-62
2024/01/03 08:08:08;;;;;;;30.38;28.30;;;;;;;;;;4149045;28;20046;-62
2024/01/03 08:10:10;;;;;;;30.75;27.80;;;;;;;;;;4166002;28;20124;-62
2024/01/03 08:12:12;;;;;;;29.90;28.08;;;;;;;;;;4166055;28;20038;-62
2024/01/03 08:14:14;;;;;;;28.20;26.20;;;;;;;;;;4165738;28;20259;-61
2024/01/03 08:16:16;;;;;;;30.13;28.00;;;;;;;;;;4166011;28;20037;-62
2024/01/03 08:18:17;;;;;;;29.13;26.93;;;;;;;;;;4165671;28;20373;-62
2024/01/03 08:20:19;;;;;;;27.58;25.60;;;;;;;;;;4165633;28;20037;-62
2024/01/03 08:22:21;;;;;;;29.08;27.20;;;;;;;;;;4165767;28;20049;-62
2024/01/03 08:24:23;;;;;;;26.52;24.42;;;;;;;;;;4165619;28;20452;-61
2024/01/03 08:26:25;;;;;;;29.03;26.33;;;;;;;;;;4165744;28;20045;-61
2024/01/03 08:28:26;;;;;;;28.63;26.40;;;;;;;;;;4165763;28;20061;-62
2024/01/03 08:30:28;;;;;;;27.33;24.67;;;;;;;;;;4165832;28;20291;-62
2024/01/03 08:32:30;;;;;;;27.00;24.83;;;;;;;;;;4148243;28;20045;-63
2024/01/03 08:34:31;;;;;;;30.52;28.23;;;;;;;;;;4165623;28;20084;-62
2024/01/03 08:36:42;;;;;;;28.95;26.90;;;;;;;;;;4165829;28;20060;-62
2024/01/03 08:38:44;;;;;;;28.35;26.45;;;;;;;;;;4165981;28;20041;-62
2024/01/03 08:40:45;;;;;;;29.20;26.83;;;;;;;;;;4165446;28;20405;-63
2024/01/03 08:42:47;;;;;;;28.75;25.88;;;;;;;;;;4165743;28;20529;-62
2024/01/03 08:44:49;;;;;;;27.93;25.63;;;;;;;;;;4165757;28;20053;-64
2024/01/03 08:46:50;;;;;;;29.63;27.00;;;;;;;;;;4165501;28;20493;-64
2024/01/03 08:48:52;;;;;;;30.08;27.08;;;;;;;;;;4165499;28;20535;-64
2024/01/03 08:50:54;;;;;;;29.23;26.63;;;;;;;;;;4165231;28;20049;-64
2024/01/03 08:52:56;;;;;;;24.73;22.90;;;;;;;;;;4175302;28;20041;-64
2024/01/03 08:54:59;;;;;;;29.77;27.30;;;;;;;;;;4167277;28;20113;-64
2024/01/03 08:57:01;;;;;;;30.05;27.50;;;;;;;;;;4165232;28;20033;-64
2024/01/03 08:59:04;;;;;;;28.13;25.98;;;;;;;;;;4165222;28;20116;-64
2024/01/03 09:01:05;;;;;;;27.35;25.67;;;;;;;;;;4165169;28;20040;-64
2024/01/03 09:03:07;;;;;;;30.47;28.07;;;;;;;;;;4164840;28;20071;-64
2024/01/03 09:05:09;;;;;;;29.92;27.45;;;;;;;;;;4165243;28;20095;-64
2024/01/03 09:07:10;;;;;;;29.73;27.08;;;;;;;;;;4164934;28;20060;-65
2024/01/03 09:09:12;;;;;;;29.53;27.17;;;;;;;;;;4166802;28;20108;-64
2024/01/03 09:11:14;;;;;;;27.75;25.80;;;;;;;;;;4165262;28;20780;-64
2024/01/03 09:13:15;;;;;;;30.00;27.00;;;;;;;;;;4164895;28;20045;-64
2024/01/03 09:15:17;;;;;;;29.95;26.83;;;;;;;;;;4164762;28;20041;-64
2024/01/03 09:17:19;;;;;;;31.52;28.38;;;;;;;;;;4165015;28;20532;-64
2024/01/03 09:19:21;;;;;;;29.07;26.77;;;;;;;;;;4164852;28;20038;-64
2024/01/03 09:21:22;;;;;;;28.25;25.92;;;;;;;;;;4164754;28;20092;-64
2024/01/03 09:23:24;;;;;;;29.93;27.47;;;;;;;;;;4164765;28;20037;-64
2024/01/03 09:25:26;;;;;;;27.90;25.58;;;;;;;;;;4164554;28;20448;-64
2024/01/03 09:27:27;;;;;;;29.57;27.13;;;;;;;;;;4164730;28;20072;-64
2024/01/03 09:29:29;;;;;;;27.63;25.20;;;;;;;;;;4164723;28;20048;-64
2024/01/03 09:31:33;;;;;;;28.67;26.00;;;;;;;;;;4164869;28;20087;-64
2024/01/03 09:33:34;;;;;;;28.73;26.25;;;;;;;;;;4164866;28;20099;-65
2024/01/03 09:35:36;;;;;;;25.55;24.17;;;;;;;;;;4164861;28;20049;-64
2024/01/03 09:37:38;;;;;;;31.20;27.83;;;;;;;;;;4164741;28;20041;-64
2024/01/03 09:39:40;;;;;;;31.92;28.52;;;;;;;;;;4164224;28;20045;-65
2024/01/03 09:41:42;;;;;;;31.53;28.30;;;;;;;;;;4164655;28;20073;-65
2024/01/03 09:43:45;;;;;;;30.02;27.27;;;;;;;;;;4164787;28;20099;-65
2024/01/03 09:45:47;;;;;;;33.22;28.20;;;;;;;;;;4164590;28;20049;-65
2024/01/03 09:47:48;;;;;;;33.60;30.40;;;;;;;;;;4164491;28;20496;-65
2024/01/03 09:49:50;;;;;;;30.83;27.90;;;;;;;;;;4164373;28;20042;-65
2024/01/03 09:51:53;;;;;;;29.23;27.17;;;;;;;;;;4165868;28;20505;-65
2024/01/03 09:53:56;;;;;;;28.30;26.05;;;;;;;;;;4175653;28;20524;-64
2024/01/03 09:55:58;;;;;;;31.55;28.90;;;;;;;;;;4164633;28;20485;-63
2024/01/03 09:58:00;;;;;;;28.48;25.85;;;;;;;;;;4164832;28;20042;-62
2024/01/03 10:00:02;;;;;;;27.87;25.73;;;;;;;;;;4164264;28;20045;-62
2024/01/03 10:02:06;;;;;;;26.23;23.90;;;;;;;;;;4164315;28;20401;-62
2024/01/03 10:04:08;;;;;;;29.70;27.15;;;;;;;;;;4163923;28;20063;-62
2024/01/03 10:06:13;;;;;;;27.77;25.70;;;;;;;;;;4164376;28;20102;-62
2024/01/03 10:08:20;;;;;;;30.15;26.27;;;;;;;;;;4167138;28;20036;-61
2024/01/03 10:10:30;;;;;;;31.45;28.52;;;;;;;;;;4164074;28;20046;-62
2024/01/03 10:12:35;;;;;;;28.45;25.90;;;;;;;;;;4163945;28;20095;-62
2024/01/03 10:14:36;;;;;;;28.40;25.95;;;;;;;;;;4164004;28;20045;-62
2024/01/03 10:16:38;;;;;;;27.98;25.77;;;;;;;;;;4164200;28;20037;-62
2024/01/03 10:18:40;;;;;;;27.35;25.33;;;;;;;;;;4164194;28;20044;-63
2024/01/03 10:20:42;;;;;;;;;;;;;;;;;;4164319;28;20041;-62
2024/01/03 10:22:44;;;;;;;28.67;26.73;;;;;;;;;;4164100;28;19921;-61
2024/01/03 10:24:48;;;;;;;29.48;27.65;;;;;;;;;;4164229;28;20049;-62
2024/01/03 10:26:50;;;;;;;28.17;25.77;;;;;;;;;;4163862;28;20297;-63
2024/01/03 10:28:52;;;;;;;;;;;;;;;;;;4147215;28;20128;-62
2024/01/03 10:30:54;;;;;;;27.08;25.13;;;;;;;;;;4163997;28;19921;-62
2024/01/03 10:32:57;;;;;;;28.15;26.00;;;;;;;;;;4163897;28;20124;-62
2024/01/03 10:35:15;;;;;;;31.00;28.52;;;;;;;;;;4163715;28;20053;-62
2024/01/03 10:37:17;;;;;;;29.20;26.65;;;;;;;;;;4163852;28;20413;-64
2024/01/03 10:39:22;;;;;;;28.25;26.48;;;;;;;;;;4164095;28;20041;-62
2024/01/03 10:41:24;;;;;;;28.20;25.73;;;;;;;;;;4163883;28;20095;-63
2024/01/03 10:43:26;;;;;;;27.52;25.13;;;;;;;;;;4163789;28;20072;-61
2024/01/03 10:45:27;;;;;;;27.63;25.37;;;;;;;;;;4164011;28;20041;-62
2024/01/03 10:47:29;;;;;;;27.88;25.25;;;;;;;;;;4163767;28;20283;-62
2024/01/03 10:49:31;;;;;;;29.65;24.85;;;;;;;;;;4163959;28;20041;-62
2024/01/03 10:51:33;;;;;;;;;;;;;;;;;;4163633;28;20065;-62
2024/01/03 10:53:39;;;;;;;28.67;26.63;;;;;;;;;;4169270;28;19995;-62
2024/01/03 10:55:41;;;;;;;28.58;26.58;;;;;;;;;;4156253;28;20048;-63
2024/01/03 10:57:56;;;;;;;27.27;25.25;;;;;;;;;;4156814;28;20049;-63
2024/01/03 11:00:06;;;;;;;28.98;26.88;;;;;;;;;;4155713;28;20089;-62
2024/01/03 11:02:17;;;;;;;27.55;25.35;;;;;;;;;;4154332;28;20440;-61
2024/01/03 11:04:37;;;;;;;28.60;26.23;;;;;;;;;;4156366;28;20053;-63
2024/01/03 11:06:54;;;;;;;28.90;26.45;;;;;;;;;;4156471;28;20030;-62
2024/01/03 11:08:59;;;;;;;28.25;26.23;;;;;;;;;;4165984;28;20049;-62
2024/01/03 11:11:01;;;;;;;30.20;27.33;;;;;;;;;;4152448;28;20046;-62
2024/01/03 11:13:23;;;;;;;26.67;24.67;;;;;;;;;;4166271;28;20042;-62
2024/01/03 11:15:25;;;;;;;27.10;25.35;;;;;;;;;;4164074;28;20497;-62
2024/01/03 11:17:41;;;;;;;29.05;26.55;;;;;;;;;;4154440;28;20088;-62
2024/01/03 11:19:43;;;;;;;26.35;24.05;;;;;;;;;;4160791;28;20133;-62
2024/01/03 11:21:45;;;;;;;27.90;26.23;;;;;;;;;;4162589;28;20034;-63
2024/01/03 11:23:47;;;;;;;28.48;26.23;;;;;;;;;;4163024;28;20295;-62
2024/01/03 11:25:49;;;;;;;28.15;25.50;;;;;;;;;;4163078;28;20079;-63
2024/01/03 11:28:11;;;;;;;28.65;26.17;;;;;;;;;;4132698;28;20105;-63
2024/01/03 11:30:32;;;;;;;27.85;25.30;;;;;;;;;;4161877;28;20064;-62
2024/01/03 11:32:35;;;;;;;27.33;25.48;;;;;;;;;;4158070;28;20120;-62
2024/01/03 11:34:41;;;;;;;27.30;25.17;;;;;;;;;;4160662;28;20117;-62
2024/01/03 11:36:43;;;;;;;;;;;;;;;;;;4141658;28;20038;-62
2024/01/03 11:38:46;;;;;;;28.23;25.65;;;;;;;;;;4166332;28;19967;-61
2024/01/03 11:40:48;;;;;;;25.17;22.98;;;;;;;;;;4166456;28;20092;-63
2024/01/03 11:42:55;;;;;;;27.08;24.73;;;;;;;;;;4158575;28;20044;-61
2024/01/03 11:45:23;;;;;;;29.05;26.73;;;;;;;;;;4156671;28;20448;-63
2024/01/03 11:47:25;;;;;;;26.77;24.65;;;;;;;;;;4163700;28;20057;-62
2024/01/03 11:49:26;;;;;;;27.08;25.17;;;;;;;;;;4166202;28;20568;-62
2024/01/03 11:51:28;;;;;;;26.63;24.75;;;;;;;;;;4163015;28;20065;-61
2024/01/03 11:53:30;;;;;;;25.90;24.23;;;;;;;;;;4179721;28;20480;-62
2024/01/03 11:55:31;;;;;;;28.42;26.60;;;;;;;;;;4164938;28;20295;-62
2024/01/03 11:57:34;;;;;;;27.30;25.33;;;;;;;;;;4159416;28;20034;-62